SKCG/CTG METAR and TAF weather

Enter ICAO airport designator
Station Type Date Time Source
SKCG METAR 2021/09/27 07:00 UTC NOAA

SKCG 270700Z 02005KT CAVOK 28/27 Q1011 RMK A2985


Station Type Date Time Source
SKCG Decoded METAR 2021/09/27 07:00 UTC NOAA

Cartagena / Rafael Nunez, Colombia (SKCG) 10-27N 075-31W 12M
Sep 27, 2021 - 03:00 AM EDT / 2021.09.27 0700 UTC
Wind: from the NNE (020 degrees) at 6 MPH (5 KT):0
Visibility: greater than 7 mile(s):0
Temperature: 82 F (28 C)
Dew Point: 80 F (27 C)
Relative Humidity: 94%
Pressure (altimeter): 29.85 in. Hg (1011 hPa)
ob: SKCG 270700Z 02005KT CAVOK 28/27 Q1011 RMK A2985
cycle: 7

Station Type Date Time Source
SKCG TAF 2021/09/27 06:51 UTC NOAA

TAF SKCG 270430Z 2706/2806 VRB03KT 9999 FEW020
BECMG 2714/2716 32010KT TX33/2718Z TN26/2710Z

Example: see airport list